sensor_id;sensor_type;location;lat;lon;timestamp;temperature;humidity
22827;DHT22;11580;52.562;13.418;2023-04-05T00:02:11;4.90;23.60
22827;DHT22;11580;52.562;13.418;2023-04-05T00:04:44;4.90;23.70
22827;DHT22;11580;52.562;13.418;2023-04-05T00:07:17;4.90;23.70
22827;DHT22;11580;52.562;13.418;2023-04-05T00:09:47;4.90;23.80
22827;DHT22;11580;52.562;13.418;2023-04-05T00:12:15;4.90;23.80
22827;DHT22;11580;52.562;13.418;2023-04-05T00:14:42;4.80;23.80
22827;DHT22;11580;52.562;13.418;2023-04-05T00:17:09;4.80;23.90
22827;DHT22;11580;52.562;13.418;2023-04-05T00:19:37;4.80;24.50
22827;DHT22;11580;52.562;13.418;2023-04-05T00:22:05;4.80;24.50
22827;DHT22;11580;52.562;13.418;2023-04-05T00:24:36;4.70;23.90
22827;DHT22;11580;52.562;13.418;2023-04-05T00:27:09;4.70;24.50
22827;DHT22;11580;52.562;13.418;2023-04-05T00:29:36;4.80;24.00
22827;DHT22;11580;52.562;13.418;2023-04-05T00:32:04;4.70;24.00
22827;DHT22;11580;52.562;13.418;2023-04-05T00:34:31;4.60;24.00
22827;DHT22;11580;52.562;13.418;2023-04-05T00:36:58;4.60;24.00
22827;DHT22;11580;52.562;13.418;2023-04-05T00:39:26;4.60;24.00
22827;DHT22;11580;52.562;13.418;2023-04-05T00:41:53;4.50;24.00
22827;DHT22;11580;52.562;13.418;2023-04-05T00:44:22;4.50;24.10
22827;DHT22;11580;52.562;13.418;2023-04-05T00:46:49;4.50;24.00
22827;DHT22;11580;52.562;13.418;2023-04-05T00:49:16;4.50;24.10
22827;DHT22;11580;52.562;13.418;2023-04-05T00:51:44;4.50;24.70
22827;DHT22;11580;52.562;13.418;2023-04-05T00:54:12;4.50;24.20
22827;DHT22;11580;52.562;13.418;2023-04-05T00:56:40;4.40;24.00
22827;DHT22;11580;52.562;13.418;2023-04-05T00:59:07;4.40;24.10
22827;DHT22;11580;52.562;13.418;2023-04-05T01:01:38;4.40;24.60
22827;DHT22;11580;52.562;13.418;2023-04-05T01:04:09;4.40;23.70
22827;DHT22;11580;52.562;13.418;2023-04-05T01:06:46;4.50;23.90
22827;DHT22;11580;52.562;13.418;2023-04-05T01:09:32;4.40;23.50
22827;DHT22;11580;52.562;13.418;2023-04-05T01:12:09;4.40;23.60
22827;DHT22;11580;52.562;13.418;2023-04-05T01:14:44;4.40;24.30
22827;DHT22;11580;52.562;13.418;2023-04-05T01:17:14;4.40;23.70
22827;DHT22;11580;52.562;13.418;2023-04-05T01:19:47;4.40;23.60
22827;DHT22;11580;52.562;13.418;2023-04-05T01:25:53;4.40;23.10
22827;DHT22;11580;52.562;13.418;2023-04-05T01:28:55;4.40;23.50
22827;DHT22;11580;52.562;13.418;2023-04-05T01:31:41;4.40;23.90
22827;DHT22;11580;52.562;13.418;2023-04-05T01:34:19;4.40;23.90
22827;DHT22;11580;52.562;13.418;2023-04-05T01:36:55;4.40;24.60
22827;DHT22;11580;52.562;13.418;2023-04-05T01:39:27;4.30;24.20
22827;DHT22;11580;52.562;13.418;2023-04-05T01:41:58;4.30;24.30
22827;DHT22;11580;52.562;13.418;2023-04-05T01:44:26;4.30;24.30
22827;DHT22;11580;52.562;13.418;2023-04-05T01:46:56;4.30;24.40
22827;DHT22;11580;52.562;13.418;2023-04-05T01:49:23;4.30;24.40
22827;DHT22;11580;52.562;13.418;2023-04-05T01:51:50;4.30;24.50
22827;DHT22;11580;52.562;13.418;2023-04-05T01:54:18;4.40;25.20
22827;DHT22;11580;52.562;13.418;2023-04-05T01:56:45;4.40;24.80
22827;DHT22;11580;52.562;13.418;2023-04-05T01:59:12;4.40;25.40
22827;DHT22;11580;52.562;13.418;2023-04-05T02:01:39;4.40;25.00
22827;DHT22;11580;52.562;13.418;2023-04-05T02:04:08;4.50;25.10
22827;DHT22;11580;52.562;13.418;2023-04-05T02:06:36;4.50;25.70
22827;DHT22;11580;52.562;13.418;2023-04-05T02:09:04;4.60;25.30
22827;DHT22;11580;52.562;13.418;2023-04-05T02:11:31;4.70;25.40
22827;DHT22;11580;52.562;13.418;2023-04-05T02:13:58;4.80;25.50
22827;DHT22;11580;52.562;13.418;2023-04-05T02:16:25;5.00;25.60
22827;DHT22;11580;52.562;13.418;2023-04-05T02:18:54;5.00;25.50
22827;DHT22;11580;52.562;13.418;2023-04-05T02:21:23;5.10;25.50
22827;DHT22;11580;52.562;13.418;2023-04-05T02:23:51;5.20;25.40
22827;DHT22;11580;52.562;13.418;2023-04-05T02:26:19;5.30;25.50
22827;DHT22;11580;52.562;13.418;2023-04-05T02:28:46;5.40;26.10
22827;DHT22;11580;52.562;13.418;2023-04-05T02:31:14;5.50;25.50
22827;DHT22;11580;52.562;13.418;2023-04-05T02:33:41;5.60;25.50
22827;DHT22;11580;52.562;13.418;2023-04-05T02:36:11;5.60;25.30
22827;DHT22;11580;52.562;13.418;2023-04-05T02:38:40;5.70;25.00
22827;DHT22;11580;52.562;13.418;2023-04-05T02:41:09;5.80;25.20
22827;DHT22;11580;52.562;13.418;2023-04-05T02:43:37;5.90;25.20
22827;DHT22;11580;52.562;13.418;2023-04-05T02:46:04;6.00;25.20
22827;DHT22;11580;52.562;13.418;2023-04-05T02:48:37;6.00;25.20
22827;DHT22;11580;52.562;13.418;2023-04-05T02:51:05;6.10;25.60
22827;DHT22;11580;52.562;13.418;2023-04-05T02:53:33;6.20;25.30
22827;DHT22;11580;52.562;13.418;2023-04-05T02:56:06;6.20;25.20
22827;DHT22;11580;52.562;13.418;2023-04-05T02:58:38;6.30;25.00
22827;DHT22;11580;52.562;13.418;2023-04-05T03:01:06;6.30;25.20
22827;DHT22;11580;52.562;13.418;2023-04-05T03:03:34;6.40;25.20
22827;DHT22;11580;52.562;13.418;2023-04-05T03:06:04;6.40;25.70
22827;DHT22;11580;52.562;13.418;2023-04-05T03:08:39;6.50;25.00
22827;DHT22;11580;52.562;13.418;2023-04-05T03:11:12;6.50;25.00
22827;DHT22;11580;52.562;13.418;2023-04-05T03:13:45;6.50;24.80
22827;DHT22;11580;52.562;13.418;2023-04-05T03:16:23;6.60;24.90
22827;DHT22;11580;52.562;13.418;2023-04-05T03:18:50;6.60;25.40
22827;DHT22;11580;52.562;13.418;2023-04-05T03:21:18;6.60;25.40
22827;DHT22;11580;52.562;13.418;2023-04-05T03:23:55;6.60;24.80
22827;DHT22;11580;52.562;13.418;2023-04-05T03:26:29;6.60;24.80
22827;DHT22;11580;52.562;13.418;2023-04-05T03:28:58;6.60;24.70
22827;DHT22;11580;52.562;13.418;2023-04-05T03:31:30;6.50;24.80
22827;DHT22;11580;52.562;13.418;2023-04-05T03:34:01;6.50;24.90
22827;DHT22;11580;52.562;13.418;2023-04-05T03:36:37;6.50;25.00
22827;DHT22;11580;52.562;13.418;2023-04-05T03:39:15;6.50;25.10
22827;DHT22;11580;52.562;13.418;2023-04-05T03:41:44;6.50;25.20
22827;DHT22;11580;52.562;13.418;2023-04-05T03:44:11;6.50;25.70
22827;DHT22;11580;52.562;13.418;2023-04-05T03:46:38;6.50;25.30
22827;DHT22;11580;52.562;13.418;2023-04-05T03:49:07;6.60;25.40
22827;DHT22;11580;52.562;13.418;2023-04-05T03:51:34;6.60;25.50
22827;DHT22;11580;52.562;13.418;2023-04-05T03:54:01;6.60;25.50
22827;DHT22;11580;52.562;13.418;2023-04-05T03:56:32;6.60;25.60
22827;DHT22;11580;52.562;13.418;2023-04-05T03:59:09;6.60;25.60
22827;DHT22;11580;52.562;13.418;2023-04-05T04:01:36;6.70;25.50
22827;DHT22;11580;52.562;13.418;2023-04-05T04:04:05;6.70;26.20
22827;DHT22;11580;52.562;13.418;2023-04-05T04:06:32;6.70;25.70
22827;DHT22;11580;52.562;13.418;2023-04-05T04:08:59;6.80;26.30
22827;DHT22;11580;52.562;13.418;2023-04-05T04:11:29;6.80;25.70
22827;DHT22;11580;52.562;13.418;2023-04-05T04:13:59;6.80;25.70
22827;DHT22;11580;52.562;13.418;2023-04-05T04:16:38;6.80;25.70
22827;DHT22;11580;52.562;13.418;2023-04-05T04:19:21;6.90;25.60
22827;DHT22;11580;52.562;13.418;2023-04-05T04:22:03;6.90;25.70
22827;DHT22;11580;52.562;13.418;2023-04-05T04:25:05;6.90;25.60
22827;DHT22;11580;52.562;13.418;2023-04-05T04:27:59;6.90;25.60
22827;DHT22;11580;52.562;13.418;2023-04-05T04:30:46;6.90;25.70
22827;DHT22;11580;52.562;13.418;2023-04-05T04:33:48;6.90;26.20
22827;DHT22;11580;52.562;13.418;2023-04-05T04:36:36;6.90;25.40
22827;DHT22;11580;52.562;13.418;2023-04-05T04:39:43;6.90;25.70
22827;DHT22;11580;52.562;13.418;2023-04-05T04:42:44;6.90;25.70
22827;DHT22;11580;52.562;13.418;2023-04-05T04:45:31;6.90;25.70
22827;DHT22;11580;52.562;13.418;2023-04-05T04:48:18;6.90;25.70
22827;DHT22;11580;52.562;13.418;2023-04-05T04:51:08;6.90;25.70
22827;DHT22;11580;52.562;13.418;2023-04-05T04:53:35;6.90;25.60
22827;DHT22;11580;52.562;13.418;2023-04-05T04:56:05;6.90;26.20
22827;DHT22;11580;52.562;13.418;2023-04-05T04:58:33;6.90;25.50
22827;DHT22;11580;52.562;13.418;2023-04-05T05:01:06;6.90;25.60
22827;DHT22;11580;52.562;13.418;2023-04-05T05:03:34;6.90;25.40
22827;DHT22;11580;52.562;13.418;2023-04-05T05:06:03;6.90;25.60
22827;DHT22;11580;52.562;13.418;2023-04-05T05:08:34;6.90;25.60
22827;DHT22;11580;52.562;13.418;2023-04-05T05:11:03;6.90;25.50
22827;DHT22;11580;52.562;13.418;2023-04-05T05:13:32;6.90;26.20
22827;DHT22;11580;52.562;13.418;2023-04-05T05:16:00;7.00;25.70
22827;DHT22;11580;52.562;13.418;2023-04-05T05:18:29;7.00;25.70
22827;DHT22;11580;52.562;13.418;2023-04-05T05:20:56;7.00;25.70
22827;DHT22;11580;52.562;13.418;2023-04-05T05:23:23;7.00;26.30
22827;DHT22;11580;52.562;13.418;2023-04-05T05:25:57;7.10;25.80
22827;DHT22;11580;52.562;13.418;2023-04-05T05:28:25;7.10;25.20
22827;DHT22;11580;52.562;13.418;2023-04-05T05:30:53;7.10;25.80
22827;DHT22;11580;52.562;13.418;2023-04-05T05:33:20;7.20;25.80
22827;DHT22;11580;52.562;13.418;2023-04-05T05:35:48;7.20;26.40
22827;DHT22;11580;52.562;13.418;2023-04-05T05:38:15;7.30;25.80
22827;DHT22;11580;52.562;13.418;2023-04-05T05:40:43;7.30;26.30
22827;DHT22;11580;52.562;13.418;2023-04-05T05:43:11;7.40;25.80
22827;DHT22;11580;52.562;13.418;2023-04-05T05:45:40;7.40;25.60
22827;DHT22;11580;52.562;13.418;2023-04-05T05:48:07;7.50;25.80
22827;DHT22;11580;52.562;13.418;2023-04-05T05:50:34;7.60;25.80
22827;DHT22;11580;52.562;13.418;2023-04-05T05:53:01;7.60;26.30
22827;DHT22;11580;52.562;13.418;2023-04-05T05:55:28;7.70;26.30
22827;DHT22;11580;52.562;13.418;2023-04-05T05:57:55;7.70;25.80
22827;DHT22;11580;52.562;13.418;2023-04-05T06:00:24;7.80;25.80
22827;DHT22;11580;52.562;13.418;2023-04-05T06:02:51;7.90;25.60
22827;DHT22;11580;52.562;13.418;2023-04-05T06:05:19;8.00;26.30
22827;DHT22;11580;52.562;13.418;2023-04-05T06:07:46;8.10;25.70
22827;DHT22;11580;52.562;13.418;2023-04-05T06:10:13;8.10;25.70
22827;DHT22;11580;52.562;13.418;2023-04-05T06:12:41;8.20;25.60
22827;DHT22;11580;52.562;13.418;2023-04-05T06:15:08;8.30;25.50
22827;DHT22;11580;52.562;13.418;2023-04-05T06:17:37;8.40;25.60
22827;DHT22;11580;52.562;13.418;2023-04-05T06:20:09;8.50;25.40
22827;DHT22;11580;52.562;13.418;2023-04-05T06:22:37;8.50;25.30
22827;DHT22;11580;52.562;13.418;2023-04-05T06:25:06;8.60;25.60
22827;DHT22;11580;52.562;13.418;2023-04-05T06:27:33;8.60;25.50
22827;DHT22;11580;52.562;13.418;2023-04-05T06:30:01;8.70;25.60
22827;DHT22;11580;52.562;13.418;2023-04-05T06:32:28;8.80;25.50
22827;DHT22;11580;52.562;13.418;2023-04-05T06:34:57;8.90;25.50
22827;DHT22;11580;52.562;13.418;2023-04-05T06:37:26;9.00;25.00
22827;DHT22;11580;52.562;13.418;2023-04-05T06:39:53;9.10;25.30
22827;DHT22;11580;52.562;13.418;2023-04-05T06:42:20;9.20;25.00
22827;DHT22;11580;52.562;13.418;2023-04-05T06:44:53;9.20;24.70
22827;DHT22;11580;52.562;13.418;2023-04-05T06:47:21;9.30;25.30
22827;DHT22;11580;52.562;13.418;2023-04-05T06:49:48;9.30;24.80
22827;DHT22;11580;52.562;13.418;2023-04-05T06:52:17;9.40;25.40
22827;DHT22;11580;52.562;13.418;2023-04-05T06:54:44;9.40;24.70
22827;DHT22;11580;52.562;13.418;2023-04-05T06:57:11;9.50;24.80
22827;DHT22;11580;52.562;13.418;2023-04-05T06:59:38;9.60;24.80
22827;DHT22;11580;52.562;13.418;2023-04-05T07:02:05;9.60;24.80
22827;DHT22;11580;52.562;13.418;2023-04-05T07:04:33;9.70;24.90
22827;DHT22;11580;52.562;13.418;2023-04-05T07:07:03;9.80;25.00
22827;DHT22;11580;52.562;13.418;2023-04-05T07:09:32;9.90;25.00
22827;DHT22;11580;52.562;13.418;2023-04-05T07:12:02;10.00;24.70
22827;DHT22;11580;52.562;13.418;2023-04-05T07:14:31;10.10;24.20
22827;DHT22;11580;52.562;13.418;2023-04-05T07:16:59;10.20;24.40
22827;DHT22;11580;52.562;13.418;2023-04-05T07:19:26;10.40;24.50
22827;DHT22;11580;52.562;13.418;2023-04-05T07:21:54;10.60;24.50
22827;DHT22;11580;52.562;13.418;2023-04-05T07:24:22;10.60;24.10
22827;DHT22;11580;52.562;13.418;2023-04-05T07:26:51;10.80;24.20
22827;DHT22;11580;52.562;13.418;2023-04-05T07:29:18;10.80;23.70
22827;DHT22;11580;52.562;13.418;2023-04-05T07:31:45;10.80;23.90
22827;DHT22;11580;52.562;13.418;2023-04-05T07:34:12;10.90;24.40
22827;DHT22;11580;52.562;13.418;2023-04-05T07:36:40;10.90;23.60
22827;DHT22;11580;52.562;13.418;2023-04-05T07:39:07;10.90;23.30
22827;DHT22;11580;52.562;13.418;2023-04-05T07:41:34;10.90;23.00
22827;DHT22;11580;52.562;13.418;2023-04-05T07:44:04;10.80;22.80
22827;DHT22;11580;52.562;13.418;2023-04-05T07:46:31;10.80;23.10
22827;DHT22;11580;52.562;13.418;2023-04-05T07:48:58;10.60;22.90
22827;DHT22;11580;52.562;13.418;2023-04-05T07:51:25;10.50;23.00
22827;DHT22;11580;52.562;13.418;2023-04-05T07:53:52;10.40;23.70
22827;DHT22;11580;52.562;13.418;2023-04-05T07:56:20;10.30;23.30
22827;DHT22;11580;52.562;13.418;2023-04-05T07:58:47;10.20;23.50
22827;DHT22;11580;52.562;13.418;2023-04-05T08:01:17;10.10;23.70
22827;DHT22;11580;52.562;13.418;2023-04-05T08:03:46;10.10;23.50
22827;DHT22;11580;52.562;13.418;2023-04-05T08:06:14;10.10;23.70
22827;DHT22;11580;52.562;13.418;2023-04-05T08:08:43;10.10;23.70
22827;DHT22;11580;52.562;13.418;2023-04-05T08:11:11;10.10;23.90
22827;DHT22;11580;52.562;13.418;2023-04-05T08:13:38;10.10;24.00
22827;DHT22;11580;52.562;13.418;2023-04-05T08:16:06;10.10;24.10
22827;DHT22;11580;52.562;13.418;2023-04-05T08:18:35;10.10;24.10
22827;DHT22;11580;52.562;13.418;2023-04-05T08:21:03;10.20;23.80
22827;DHT22;11580;52.562;13.418;2023-04-05T08:23:31;10.30;24.30
22827;DHT22;11580;52.562;13.418;2023-04-05T08:25:58;10.40;24.30
22827;DHT22;11580;52.562;13.418;2023-04-05T08:28:25;10.50;24.50
22827;DHT22;11580;52.562;13.418;2023-04-05T08:30:53;10.60;24.50
22827;DHT22;11580;52.562;13.418;2023-04-05T08:33:22;10.70;24.30
22827;DHT22;11580;52.562;13.418;2023-04-05T08:35:52;10.80;24.20
22827;DHT22;11580;52.562;13.418;2023-04-05T08:38:19;10.90;24.80
22827;DHT22;11580;52.562;13.418;2023-04-05T08:40:47;11.00;24.30
22827;DHT22;11580;52.562;13.418;2023-04-05T08:43:22;11.10;24.20
22827;DHT22;11580;52.562;13.418;2023-04-05T08:45:58;11.30;23.00
22827;DHT22;11580;52.562;13.418;2023-04-05T08:48:30;11.40;23.60
22827;DHT22;11580;52.562;13.418;2023-04-05T08:51:02;11.60;23.40
22827;DHT22;11580;52.562;13.418;2023-04-05T08:53:29;11.70;23.70
22827;DHT22;11580;52.562;13.418;2023-04-05T08:55:59;11.80;24.00
22827;DHT22;11580;52.562;13.418;2023-04-05T08:58:30;11.90;23.10
22827;DHT22;11580;52.562;13.418;2023-04-05T09:00:59;12.00;23.20
22827;DHT22;11580;52.562;13.418;2023-04-05T09:03:30;12.00;23.40
22827;DHT22;11580;52.562;13.418;2023-04-05T09:06:06;12.10;23.40
22827;DHT22;11580;52.562;13.418;2023-04-05T09:08:37;12.20;22.80
22827;DHT22;11580;52.562;13.418;2023-04-05T09:11:04;12.20;23.30
22827;DHT22;11580;52.562;13.418;2023-04-05T09:13:32;12.30;23.60
22827;DHT22;11580;52.562;13.418;2023-04-05T09:16:00;12.50;23.70
22827;DHT22;11580;52.562;13.418;2023-04-05T09:18:28;12.60;23.10
22827;DHT22;11580;52.562;13.418;2023-04-05T09:21:02;12.70;23.10
22827;DHT22;11580;52.562;13.418;2023-04-05T09:23:32;12.80;22.30
22827;DHT22;11580;52.562;13.418;2023-04-05T09:26:00;12.80;23.30
22827;DHT22;11580;52.562;13.418;2023-04-05T09:28:43;12.90;23.20
22827;DHT22;11580;52.562;13.418;2023-04-05T09:31:28;13.10;23.20
22827;DHT22;11580;52.562;13.418;2023-04-05T09:33:57;13.30;22.00
22827;DHT22;11580;52.562;13.418;2023-04-05T09:36:27;13.40;22.90
22827;DHT22;11580;52.562;13.418;2023-04-05T09:39:04;13.40;22.10
22827;DHT22;11580;52.562;13.418;2023-04-05T09:41:33;13.50;21.10
22827;DHT22;11580;52.562;13.418;2023-04-05T09:44:01;13.50;22.30
22827;DHT22;11580;52.562;13.418;2023-04-05T09:46:29;13.60;23.00
22827;DHT22;11580;52.562;13.418;2023-04-05T09:48:59;13.60;21.70
22827;DHT22;11580;52.562;13.418;2023-04-05T09:51:33;13.60;21.60
22827;DHT22;11580;52.562;13.418;2023-04-05T09:54:04;13.60;21.10
22827;DHT22;11580;52.562;13.418;2023-04-05T09:56:35;13.60;21.80
22827;DHT22;11580;52.562;13.418;2023-04-05T09:59:06;13.60;21.40
22827;DHT22;11580;52.562;13.418;2023-04-05T10:01:35;13.60;21.10
22827;DHT22;11580;52.562;13.418;2023-04-05T10:04:03;13.70;22.30
22827;DHT22;11580;52.562;13.418;2023-04-05T10:06:38;13.70;21.60
22827;DHT22;11580;52.562;13.418;2023-04-05T10:09:08;13.80;20.60
22827;DHT22;11580;52.562;13.418;2023-04-05T10:11:37;13.80;21.70
22827;DHT22;11580;52.562;13.418;2023-04-05T10:14:07;13.90;21.80
22827;DHT22;11580;52.562;13.418;2023-04-05T10:16:39;14.00;21.40
22827;DHT22;11580;52.562;13.418;2023-04-05T10:19:16;14.20;21.00
22827;DHT22;11580;52.562;13.418;2023-04-05T10:21:53;14.20;20.80
22827;DHT22;11580;52.562;13.418;2023-04-05T10:24:33;14.30;21.50
22827;DHT22;11580;52.562;13.418;2023-04-05T10:27:10;14.40;20.00
22827;DHT22;11580;52.562;13.418;2023-04-05T10:29:49;14.50;22.10
22827;DHT22;11580;52.562;13.418;2023-04-05T10:32:33;14.50;20.20
22827;DHT22;11580;52.562;13.418;2023-04-05T10:35:09;14.60;20.10
22827;DHT22;11580;52.562;13.418;2023-04-05T10:37:53;14.70;20.50
22827;DHT22;11580;52.562;13.418;2023-04-05T10:40:33;14.70;19.90
22827;DHT22;11580;52.562;13.418;2023-04-05T10:43:03;14.70;21.00
22827;DHT22;11580;52.562;13.418;2023-04-05T10:45:34;14.70;21.00
22827;DHT22;11580;52.562;13.418;2023-04-05T10:48:05;14.70;20.50
22827;DHT22;11580;52.562;13.418;2023-04-05T10:50:41;14.70;20.30
22827;DHT22;11580;52.562;13.418;2023-04-05T10:53:10;14.70;20.60
22827;DHT22;11580;52.562;13.418;2023-04-05T10:55:38;14.70;20.40
22827;DHT22;11580;52.562;13.418;2023-04-05T10:58:06;14.70;21.00
22827;DHT22;11580;52.562;13.418;2023-04-05T11:00:33;14.70;21.50
22827;DHT22;11580;52.562;13.418;2023-04-05T11:03:00;14.70;21.10
22827;DHT22;11580;52.562;13.418;2023-04-05T11:05:32;14.70;21.00
22827;DHT22;11580;52.562;13.418;2023-04-05T11:08:04;14.70;19.90
22827;DHT22;11580;52.562;13.418;2023-04-05T11:10:36;14.90;20.90
22827;DHT22;11580;52.562;13.418;2023-04-05T11:13:07;14.70;19.60
22827;DHT22;11580;52.562;13.418;2023-04-05T11:15:36;14.80;19.80
22827;DHT22;11580;52.562;13.418;2023-04-05T11:18:06;14.70;20.40
22827;DHT22;11580;52.562;13.418;2023-04-05T11:20:52;14.70;20.70
22827;DHT22;11580;52.562;13.418;2023-04-05T11:23:30;14.70;19.40
22827;DHT22;11580;52.562;13.418;2023-04-05T11:26:03;14.90;20.80
22827;DHT22;11580;52.562;13.418;2023-04-05T11:28:34;14.80;19.90
22827;DHT22;11580;52.562;13.418;2023-04-05T11:31:13;14.80;20.40
22827;DHT22;11580;52.562;13.418;2023-04-05T11:33:54;14.90;19.50
22827;DHT22;11580;52.562;13.418;2023-04-05T11:36:32;14.90;19.30
22827;DHT22;11580;52.562;13.418;2023-04-05T11:39:25;14.90;19.80
22827;DHT22;11580;52.562;13.418;2023-04-05T11:41:58;14.90;20.20
22827;DHT22;11580;52.562;13.418;2023-04-05T11:44:28;14.90;19.90
22827;DHT22;11580;52.562;13.418;2023-04-05T11:46:59;14.90;20.00
22827;DHT22;11580;52.562;13.418;2023-04-05T11:49:29;14.80;20.30
22827;DHT22;11580;52.562;13.418;2023-04-05T11:51:57;14.70;20.40
22827;DHT22;11580;52.562;13.418;2023-04-05T11:54:30;14.70;20.40
22827;DHT22;11580;52.562;13.418;2023-04-05T11:56:59;14.60;19.90
22827;DHT22;11580;52.562;13.418;2023-04-05T11:59:32;14.60;20.30
22827;DHT22;11580;52.562;13.418;2023-04-05T12:02:02;14.60;19.90
22827;DHT22;11580;52.562;13.418;2023-04-05T12:04:32;14.60;20.40
22827;DHT22;11580;52.562;13.418;2023-04-05T12:07:25;14.60;20.20
22827;DHT22;11580;52.562;13.418;2023-04-05T12:10:01;14.60;19.80
22827;DHT22;11580;52.562;13.418;2023-04-05T12:12:35;14.20;18.70
22827;DHT22;11580;52.562;13.418;2023-04-05T12:15:05;14.40;19.40
22827;DHT22;11580;52.562;13.418;2023-04-05T12:17:42;14.30;19.80
22827;DHT22;11580;52.562;13.418;2023-04-05T12:20:12;14.30;19.60
22827;DHT22;11580;52.562;13.418;2023-04-05T12:22:42;14.10;20.00
22827;DHT22;11580;52.562;13.418;2023-04-05T12:25:11;14.10;20.10
22827;DHT22;11580;52.562;13.418;2023-04-05T12:27:42;14.20;20.50
22827;DHT22;11580;52.562;13.418;2023-04-05T12:30:12;14.20;20.10
22827;DHT22;11580;52.562;13.418;2023-04-05T12:32:42;14.10;19.80
22827;DHT22;11580;52.562;13.418;2023-04-05T12:35:12;14.10;20.20
22827;DHT22;11580;52.562;13.418;2023-04-05T12:37:41;14.10;20.40
22827;DHT22;11580;52.562;13.418;2023-04-05T12:40:09;14.10;20.70
22827;DHT22;11580;52.562;13.418;2023-04-05T12:42:38;14.10;20.10
22827;DHT22;11580;52.562;13.418;2023-04-05T12:45:10;14.00;20.20
22827;DHT22;11580;52.562;13.418;2023-04-05T12:47:48;14.00;19.60
22827;DHT22;11580;52.562;13.418;2023-04-05T12:50:18;14.00;19.10
22827;DHT22;11580;52.562;13.418;2023-04-05T12:52:53;14.00;19.80
22827;DHT22;11580;52.562;13.418;2023-04-05T12:55:21;13.90;19.60
22827;DHT22;11580;52.562;13.418;2023-04-05T12:57:49;13.90;19.70
22827;DHT22;11580;52.562;13.418;2023-04-05T13:00:20;13.90;19.10
22827;DHT22;11580;52.562;13.418;2023-04-05T13:02:51;14.00;19.20
22827;DHT22;11580;52.562;13.418;2023-04-05T13:05:21;14.00;19.20
22827;DHT22;11580;52.562;13.418;2023-04-05T13:07:49;14.00;20.30
22827;DHT22;11580;52.562;13.418;2023-04-05T13:10:17;14.10;20.10
22827;DHT22;11580;52.562;13.418;2023-04-05T13:12:45;14.10;20.10
22827;DHT22;11580;52.562;13.418;2023-04-05T13:15:13;14.20;20.30
22827;DHT22;11580;52.562;13.418;2023-04-05T13:17:42;14.30;20.30
22827;DHT22;11580;52.562;13.418;2023-04-05T13:20:14;14.30;19.70
22827;DHT22;11580;52.562;13.418;2023-04-05T13:22:42;14.50;19.90
22827;DHT22;11580;52.562;13.418;2023-04-05T13:25:09;14.40;19.50
22827;DHT22;11580;52.562;13.418;2023-04-05T13:27:37;14.30;19.90
22827;DHT22;11580;52.562;13.418;2023-04-05T13:30:05;14.20;19.20
22827;DHT22;11580;52.562;13.418;2023-04-05T13:32:33;14.10;19.00
22827;DHT22;11580;52.562;13.418;2023-04-05T13:35:01;14.00;19.10
22827;DHT22;11580;52.562;13.418;2023-04-05T13:37:30;13.80;19.00
22827;DHT22;11580;52.562;13.418;2023-04-05T13:39:57;13.70;19.20
22827;DHT22;11580;52.562;13.418;2023-04-05T13:42:24;13.50;19.10
22827;DHT22;11580;52.562;13.418;2023-04-05T13:44:51;13.40;19.40
22827;DHT22;11580;52.562;13.418;2023-04-05T13:47:19;13.30;19.20
22827;DHT22;11580;52.562;13.418;2023-04-05T13:49:46;13.20;19.20
22827;DHT22;11580;52.562;13.418;2023-04-05T13:52:14;13.20;19.30
22827;DHT22;11580;52.562;13.418;2023-04-05T13:54:42;13.20;19.20
22827;DHT22;11580;52.562;13.418;2023-04-05T13:57:10;13.20;19.20
22827;DHT22;11580;52.562;13.418;2023-04-05T13:59:38;13.20;19.40
22827;DHT22;11580;52.562;13.418;2023-04-05T14:02:06;13.30;19.60
22827;DHT22;11580;52.562;13.418;2023-04-05T14:04:33;13.30;19.80
22827;DHT22;11580;52.562;13.418;2023-04-05T14:07:00;13.40;20.00
22827;DHT22;11580;52.562;13.418;2023-04-05T14:09:29;13.40;20.20
22827;DHT22;11580;52.562;13.418;2023-04-05T14:11:57;13.60;20.10
22827;DHT22;11580;52.562;13.418;2023-04-05T14:14:25;13.70;20.10
22827;DHT22;11580;52.562;13.418;2023-04-05T14:16:53;13.90;19.50
22827;DHT22;11580;52.562;13.418;2023-04-05T14:19:21;14.10;19.50
22827;DHT22;11580;52.562;13.418;2023-04-05T14:21:48;14.30;18.90
22827;DHT22;11580;52.562;13.418;2023-04-05T14:24:17;14.40;18.90
22827;DHT22;11580;52.562;13.418;2023-04-05T14:26:45;14.60;18.50
22827;DHT22;11580;52.562;13.418;2023-04-05T14:29:14;14.60;18.30
22827;DHT22;11580;52.562;13.418;2023-04-05T14:31:42;14.70;18.80
22827;DHT22;11580;52.562;13.418;2023-04-05T14:34:10;14.80;18.90
22827;DHT22;11580;52.562;13.418;2023-04-05T14:36:38;14.90;19.00
22827;DHT22;11580;52.562;13.418;2023-04-05T14:39:05;15.00;18.90
22827;DHT22;11580;52.562;13.418;2023-04-05T14:41:33;15.10;18.30
22827;DHT22;11580;52.562;13.418;2023-04-05T14:44:02;15.20;18.50
22827;DHT22;11580;52.562;13.418;2023-04-05T14:46:29;15.20;18.10
22827;DHT22;11580;52.562;13.418;2023-04-05T14:48:56;15.20;18.00
22827;DHT22;11580;52.562;13.418;2023-04-05T14:51:24;15.10;18.20
22827;DHT22;11580;52.562;13.418;2023-04-05T14:53:52;15.10;19.00
22827;DHT22;11580;52.562;13.418;2023-04-05T14:56:19;15.00;18.60
22827;DHT22;11580;52.562;13.418;2023-04-05T14:58:48;15.00;18.70
22827;DHT22;11580;52.562;13.418;2023-04-05T15:01:16;15.00;18.60
22827;DHT22;11580;52.562;13.418;2023-04-05T15:03:44;15.00;18.30
22827;DHT22;11580;52.562;13.418;2023-04-05T15:06:12;15.00;18.60
22827;DHT22;11580;52.562;13.418;2023-04-05T15:08:41;15.00;18.50
22827;DHT22;11580;52.562;13.418;2023-04-05T15:11:08;14.90;19.10
22827;DHT22;11580;52.562;13.418;2023-04-05T15:13:35;14.80;18.60
22827;DHT22;11580;52.562;13.418;2023-04-05T15:16:03;14.80;18.80
22827;DHT22;11580;52.562;13.418;2023-04-05T15:18:32;14.80;19.00
22827;DHT22;11580;52.562;13.418;2023-04-05T15:20:59;14.70;18.70
22827;DHT22;11580;52.562;13.418;2023-04-05T15:23:27;14.70;19.10
22827;DHT22;11580;52.562;13.418;2023-04-05T15:25:54;14.70;19.10
22827;DHT22;11580;52.562;13.418;2023-04-05T15:28:22;14.70;19.20
22827;DHT22;11580;52.562;13.418;2023-04-05T15:30:49;14.60;19.00
22827;DHT22;11580;52.562;13.418;2023-04-05T15:33:16;14.60;19.00
22827;DHT22;11580;52.562;13.418;2023-04-05T15:35:45;14.50;18.90
22827;DHT22;11580;52.562;13.418;2023-04-05T15:38:13;14.40;18.60
22827;DHT22;11580;52.562;13.418;2023-04-05T15:40:40;14.30;18.90
22827;DHT22;11580;52.562;13.418;2023-04-05T15:43:08;14.20;18.90
22827;DHT22;11580;52.562;13.418;2023-04-05T15:45:36;14.20;19.60
22827;DHT22;11580;52.562;13.418;2023-04-05T15:48:04;14.10;19.10